Current Weather

Tambacounda

Tambacounda, Senegal (GOTT)

Report from: Monday, February 6, 2023 6:00 AM GMT
Current time: Monday, February 6, 2023 7:06 AM GMT

Nearby weather
Weather history
Weather forecast

Temperature20.0°C (68.0°F)
Dew point2.0°C (35.6°F)
Winds 4 kts (2.1 m/s, 4.6 mph) North-Northeast (20°)
Visibility5 mi. (8 km)
Altimeter29.85 in.Hg (1011 mB)
Relative humidity30 %
Density altitude769 ft. (234 m)
Flight conditions Marginal Visual Meteorological Conditions
Raw dataGOTT 060600Z 02004KT 8000 NSC 20/02 Q1011
An error has occurred. This application may no longer respond until reloaded. Reload 🗙